sensor_id;sensor_type;location;lat;lon;timestamp;temperature;humidity
3868;DHT22;1949;48.152;11.528;2022-10-18T00:01:14;21.30;45.40
3868;DHT22;1949;48.152;11.528;2022-10-18T00:03:39;21.30;45.40
3868;DHT22;1949;48.152;11.528;2022-10-18T00:06:06;21.30;45.40
3868;DHT22;1949;48.152;11.528;2022-10-18T00:08:34;21.20;45.50
3868;DHT22;1949;48.152;11.528;2022-10-18T00:11:00;21.20;45.60
3868;DHT22;1949;48.152;11.528;2022-10-18T00:13:27;21.20;45.70
3868;DHT22;1949;48.152;11.528;2022-10-18T00:16:01;21.20;45.80
3868;DHT22;1949;48.152;11.528;2022-10-18T00:18:27;21.20;45.80
3868;DHT22;1949;48.152;11.528;2022-10-18T00:21:03;21.20;45.80
3868;DHT22;1949;48.152;11.528;2022-10-18T00:23:31;21.20;45.70
3868;DHT22;1949;48.152;11.528;2022-10-18T00:26:06;21.10;45.70
3868;DHT22;1949;48.152;11.528;2022-10-18T00:28:33;21.10;45.70
3868;DHT22;1949;48.152;11.528;2022-10-18T00:33:40;21.10;45.90
3868;DHT22;1949;48.152;11.528;2022-10-18T00:36:08;21.10;45.90
3868;DHT22;1949;48.152;11.528;2022-10-18T00:38:34;21.10;45.90
3868;DHT22;1949;48.152;11.528;2022-10-18T00:40:59;21.10;45.90
3868;DHT22;1949;48.152;11.528;2022-10-18T00:43:25;21.10;45.90
3868;DHT22;1949;48.152;11.528;2022-10-18T00:45:50;21.10;45.90
3868;DHT22;1949;48.152;11.528;2022-10-18T00:48:18;21.10;45.90
3868;DHT22;1949;48.152;11.528;2022-10-18T00:50:46;21.10;45.90
3868;DHT22;1949;48.152;11.528;2022-10-18T00:53:16;21.10;46.00
3868;DHT22;1949;48.152;11.528;2022-10-18T00:55:43;21.10;46.00
3868;DHT22;1949;48.152;11.528;2022-10-18T00:58:14;21.10;46.00
3868;DHT22;1949;48.152;11.528;2022-10-18T01:00:40;21.10;46.00
3868;DHT22;1949;48.152;11.528;2022-10-18T01:03:07;21.10;46.00
3868;DHT22;1949;48.152;11.528;2022-10-18T01:05:38;21.10;46.10
3868;DHT22;1949;48.152;11.528;2022-10-18T01:08:15;21.00;46.00
3868;DHT22;1949;48.152;11.528;2022-10-18T01:21:54;21.00;46.00
3868;DHT22;1949;48.152;11.528;2022-10-18T01:25:02;21.00;46.00
3868;DHT22;1949;48.152;11.528;2022-10-18T01:30:39;20.90;46.00
3868;DHT22;1949;48.152;11.528;2022-10-18T01:38:43;20.90;46.10
3868;DHT22;1949;48.152;11.528;2022-10-18T01:41:10;20.90;46.10
3868;DHT22;1949;48.152;11.528;2022-10-18T01:43:39;20.80;46.10
3868;DHT22;1949;48.152;11.528;2022-10-18T01:46:07;20.80;46.10
3868;DHT22;1949;48.152;11.528;2022-10-18T01:48:34;20.80;46.10
3868;DHT22;1949;48.152;11.528;2022-10-18T01:51:03;20.80;46.10
3868;DHT22;1949;48.152;11.528;2022-10-18T01:53:31;20.80;46.10
3868;DHT22;1949;48.152;11.528;2022-10-18T01:59:01;20.80;46.10
3868;DHT22;1949;48.152;11.528;2022-10-18T02:02:23;20.80;46.00
3868;DHT22;1949;48.152;11.528;2022-10-18T02:04:50;20.70;46.00
3868;DHT22;1949;48.152;11.528;2022-10-18T02:10:14;20.70;46.00
3868;DHT22;1949;48.152;11.528;2022-10-18T02:12:45;20.70;46.10
3868;DHT22;1949;48.152;11.528;2022-10-18T02:15:22;20.70;46.10
3868;DHT22;1949;48.152;11.528;2022-10-18T02:17:49;20.70;46.10
3868;DHT22;1949;48.152;11.528;2022-10-18T02:20:19;20.70;46.10
3868;DHT22;1949;48.152;11.528;2022-10-18T02:22:49;20.60;46.10
3868;DHT22;1949;48.152;11.528;2022-10-18T02:25:20;20.70;46.20
3868;DHT22;1949;48.152;11.528;2022-10-18T02:27:50;20.60;46.10
3868;DHT22;1949;48.152;11.528;2022-10-18T02:30:22;20.60;46.10
3868;DHT22;1949;48.152;11.528;2022-10-18T02:33:01;20.60;46.10
3868;DHT22;1949;48.152;11.528;2022-10-18T02:35:37;20.60;46.20
3868;DHT22;1949;48.152;11.528;2022-10-18T02:38:06;20.60;46.10
3868;DHT22;1949;48.152;11.528;2022-10-18T02:40:33;20.60;46.10
3868;DHT22;1949;48.152;11.528;2022-10-18T02:42:59;20.60;46.10
3868;DHT22;1949;48.152;11.528;2022-10-18T02:45:37;20.60;46.20
3868;DHT22;1949;48.152;11.528;2022-10-18T02:48:03;20.50;46.00
3868;DHT22;1949;48.152;11.528;2022-10-18T02:50:28;20.50;46.10
3868;DHT22;1949;48.152;11.528;2022-10-18T02:52:54;20.50;45.90
3868;DHT22;1949;48.152;11.528;2022-10-18T02:55:21;20.50;45.80
3868;DHT22;1949;48.152;11.528;2022-10-18T02:57:47;20.40;45.70
3868;DHT22;1949;48.152;11.528;2022-10-18T03:00:14;20.30;45.60
3868;DHT22;1949;48.152;11.528;2022-10-18T03:02:41;20.20;45.80
3868;DHT22;1949;48.152;11.528;2022-10-18T03:05:07;20.10;45.80
3868;DHT22;1949;48.152;11.528;2022-10-18T03:07:37;20.10;46.00
3868;DHT22;1949;48.152;11.528;2022-10-18T03:10:05;20.10;46.10
3868;DHT22;1949;48.152;11.528;2022-10-18T03:12:31;20.00;46.10
3868;DHT22;1949;48.152;11.528;2022-10-18T03:14:57;20.00;46.20
3868;DHT22;1949;48.152;11.528;2022-10-18T03:17:24;20.00;46.30
3868;DHT22;1949;48.152;11.528;2022-10-18T03:19:57;20.00;46.30
3868;DHT22;1949;48.152;11.528;2022-10-18T03:22:34;20.00;46.30
3868;DHT22;1949;48.152;11.528;2022-10-18T03:25:07;20.10;46.30
3868;DHT22;1949;48.152;11.528;2022-10-18T03:27:33;20.00;46.20
3868;DHT22;1949;48.152;11.528;2022-10-18T03:30:09;20.10;46.20
3868;DHT22;1949;48.152;11.528;2022-10-18T03:32:39;20.10;46.20
3868;DHT22;1949;48.152;11.528;2022-10-18T03:35:09;20.00;46.10
3868;DHT22;1949;48.152;11.528;2022-10-18T03:37:36;20.00;46.20
3868;DHT22;1949;48.152;11.528;2022-10-18T03:40:02;20.00;46.20
3868;DHT22;1949;48.152;11.528;2022-10-18T03:42:30;19.90;46.30
3868;DHT22;1949;48.152;11.528;2022-10-18T03:44:56;20.00;46.50
3868;DHT22;1949;48.152;11.528;2022-10-18T03:47:22;20.00;46.40
3868;DHT22;1949;48.152;11.528;2022-10-18T03:49:48;20.00;46.30
3868;DHT22;1949;48.152;11.528;2022-10-18T03:55:44;19.90;46.10
3868;DHT22;1949;48.152;11.528;2022-10-18T03:58:30;19.90;46.10
3868;DHT22;1949;48.152;11.528;2022-10-18T04:04:42;19.90;46.20
3868;DHT22;1949;48.152;11.528;2022-10-18T04:07:15;19.80;46.10
3868;DHT22;1949;48.152;11.528;2022-10-18T04:09:41;19.80;46.30
3868;DHT22;1949;48.152;11.528;2022-10-18T04:12:11;19.80;46.30
3868;DHT22;1949;48.152;11.528;2022-10-18T04:14:37;19.80;46.30
3868;DHT22;1949;48.152;11.528;2022-10-18T04:17:05;19.80;46.30
3868;DHT22;1949;48.152;11.528;2022-10-18T04:19:35;19.80;46.30
3868;DHT22;1949;48.152;11.528;2022-10-18T04:22:04;19.70;46.40
3868;DHT22;1949;48.152;11.528;2022-10-18T04:24:34;19.60;46.10
3868;DHT22;1949;48.152;11.528;2022-10-18T04:27:00;19.60;46.20
3868;DHT22;1949;48.152;11.528;2022-10-18T04:29:28;19.60;46.30
3868;DHT22;1949;48.152;11.528;2022-10-18T04:31:55;19.50;46.40
3868;DHT22;1949;48.152;11.528;2022-10-18T04:34:26;19.50;46.40
3868;DHT22;1949;48.152;11.528;2022-10-18T04:36:55;19.50;46.40
3868;DHT22;1949;48.152;11.528;2022-10-18T04:39:21;19.50;46.50
3868;DHT22;1949;48.152;11.528;2022-10-18T04:41:47;19.60;46.50
3868;DHT22;1949;48.152;11.528;2022-10-18T04:44:13;19.60;46.50
3868;DHT22;1949;48.152;11.528;2022-10-18T04:46:39;19.60;46.40
3868;DHT22;1949;48.152;11.528;2022-10-18T04:49:04;19.70;46.50
3868;DHT22;1949;48.152;11.528;2022-10-18T04:51:31;19.70;46.40
3868;DHT22;1949;48.152;11.528;2022-10-18T04:53:58;19.70;46.30
3868;DHT22;1949;48.152;11.528;2022-10-18T04:56:33;19.80;46.40
3868;DHT22;1949;48.152;11.528;2022-10-18T04:58:59;19.80;46.30
3868;DHT22;1949;48.152;11.528;2022-10-18T05:01:26;19.70;46.20
3868;DHT22;1949;48.152;11.528;2022-10-18T05:03:53;19.70;46.30
3868;DHT22;1949;48.152;11.528;2022-10-18T05:06:20;19.70;46.30
3868;DHT22;1949;48.152;11.528;2022-10-18T05:08:52;19.70;46.40
3868;DHT22;1949;48.152;11.528;2022-10-18T05:11:21;19.70;46.40
3868;DHT22;1949;48.152;11.528;2022-10-18T05:13:47;19.70;46.20
3868;DHT22;1949;48.152;11.528;2022-10-18T05:16:12;19.70;46.20
3868;DHT22;1949;48.152;11.528;2022-10-18T05:18:41;19.60;46.20
3868;DHT22;1949;48.152;11.528;2022-10-18T05:21:07;19.60;46.40
3868;DHT22;1949;48.152;11.528;2022-10-18T05:23:34;19.60;46.40
3868;DHT22;1949;48.152;11.528;2022-10-18T05:26:04;19.60;46.50
3868;DHT22;1949;48.152;11.528;2022-10-18T05:28:39;19.60;46.60
3868;DHT22;1949;48.152;11.528;2022-10-18T05:31:06;19.60;46.70
3868;DHT22;1949;48.152;11.528;2022-10-18T05:33:33;19.60;46.70
3868;DHT22;1949;48.152;11.528;2022-10-18T05:36:06;19.60;46.60
3868;DHT22;1949;48.152;11.528;2022-10-18T05:38:33;19.60;46.60
3868;DHT22;1949;48.152;11.528;2022-10-18T05:41:02;19.60;46.60
3868;DHT22;1949;48.152;11.528;2022-10-18T05:43:28;19.60;46.60
3868;DHT22;1949;48.152;11.528;2022-10-18T05:45:55;19.70;46.60
3868;DHT22;1949;48.152;11.528;2022-10-18T05:48:27;19.70;46.40
3868;DHT22;1949;48.152;11.528;2022-10-18T05:50:59;19.60;46.30
3868;DHT22;1949;48.152;11.528;2022-10-18T05:53:24;19.60;46.50
3868;DHT22;1949;48.152;11.528;2022-10-18T05:55:50;19.50;46.50
3868;DHT22;1949;48.152;11.528;2022-10-18T05:58:16;19.50;46.60
3868;DHT22;1949;48.152;11.528;2022-10-18T06:00:42;19.50;46.60
3868;DHT22;1949;48.152;11.528;2022-10-18T06:03:08;19.50;46.60
3868;DHT22;1949;48.152;11.528;2022-10-18T06:05:34;19.50;46.60
3868;DHT22;1949;48.152;11.528;2022-10-18T06:08:00;19.50;46.70
3868;DHT22;1949;48.152;11.528;2022-10-18T06:10:26;19.40;46.70
3868;DHT22;1949;48.152;11.528;2022-10-18T06:12:52;19.40;46.60
3868;DHT22;1949;48.152;11.528;2022-10-18T06:15:18;19.40;46.80
3868;DHT22;1949;48.152;11.528;2022-10-18T06:17:43;19.40;47.00
3868;DHT22;1949;48.152;11.528;2022-10-18T06:20:09;19.40;47.00
3868;DHT22;1949;48.152;11.528;2022-10-18T06:22:35;19.50;47.00
3868;DHT22;1949;48.152;11.528;2022-10-18T06:25:00;19.50;46.90
3868;DHT22;1949;48.152;11.528;2022-10-18T06:27:26;19.40;46.70
3868;DHT22;1949;48.152;11.528;2022-10-18T06:29:52;19.40;46.90
3868;DHT22;1949;48.152;11.528;2022-10-18T06:32:18;19.40;47.10
3868;DHT22;1949;48.152;11.528;2022-10-18T06:34:44;19.30;47.00
3868;DHT22;1949;48.152;11.528;2022-10-18T06:37:10;19.30;47.10
3868;DHT22;1949;48.152;11.528;2022-10-18T06:39:35;19.30;47.10
3868;DHT22;1949;48.152;11.528;2022-10-18T06:42:01;19.30;47.20
3868;DHT22;1949;48.152;11.528;2022-10-18T06:44:27;19.40;47.30
3868;DHT22;1949;48.152;11.528;2022-10-18T06:46:52;19.40;47.30
3868;DHT22;1949;48.152;11.528;2022-10-18T06:49:18;19.40;47.10
3868;DHT22;1949;48.152;11.528;2022-10-18T06:51:44;19.40;47.10
3868;DHT22;1949;48.152;11.528;2022-10-18T06:54:11;19.40;47.10
3868;DHT22;1949;48.152;11.528;2022-10-18T06:56:36;19.40;46.90
3868;DHT22;1949;48.152;11.528;2022-10-18T06:59:03;19.40;47.10
3868;DHT22;1949;48.152;11.528;2022-10-18T07:01:28;19.30;47.10
3868;DHT22;1949;48.152;11.528;2022-10-18T07:03:54;19.40;47.30
3868;DHT22;1949;48.152;11.528;2022-10-18T07:06:21;19.40;47.30
3868;DHT22;1949;48.152;11.528;2022-10-18T07:08:51;19.40;47.40
3868;DHT22;1949;48.152;11.528;2022-10-18T07:11:24;19.50;47.40
3868;DHT22;1949;48.152;11.528;2022-10-18T07:13:51;19.50;47.40
3868;DHT22;1949;48.152;11.528;2022-10-18T07:16:19;19.50;47.30
3868;DHT22;1949;48.152;11.528;2022-10-18T07:18:48;19.50;47.30
3868;DHT22;1949;48.152;11.528;2022-10-18T07:21:17;19.50;47.20
3868;DHT22;1949;48.152;11.528;2022-10-18T07:23:44;19.50;47.30
3868;DHT22;1949;48.152;11.528;2022-10-18T07:26:17;19.50;47.40
3868;DHT22;1949;48.152;11.528;2022-10-18T07:28:44;19.60;47.60
3868;DHT22;1949;48.152;11.528;2022-10-18T07:31:11;19.60;47.60
3868;DHT22;1949;48.152;11.528;2022-10-18T07:33:38;19.70;47.50
3868;DHT22;1949;48.152;11.528;2022-10-18T07:36:05;19.70;47.50
3868;DHT22;1949;48.152;11.528;2022-10-18T07:38:31;19.70;47.50
3868;DHT22;1949;48.152;11.528;2022-10-18T07:41:01;19.80;47.50
3868;DHT22;1949;48.152;11.528;2022-10-18T07:43:27;19.70;47.40
3868;DHT22;1949;48.152;11.528;2022-10-18T07:45:56;19.80;47.40
3868;DHT22;1949;48.152;11.528;2022-10-18T07:48:22;19.80;47.40
3868;DHT22;1949;48.152;11.528;2022-10-18T07:50:48;19.90;47.50
3868;DHT22;1949;48.152;11.528;2022-10-18T07:53:13;19.90;47.50
3868;DHT22;1949;48.152;11.528;2022-10-18T07:55:39;19.90;47.50
3868;DHT22;1949;48.152;11.528;2022-10-18T07:58:06;19.90;47.50
3868;DHT22;1949;48.152;11.528;2022-10-18T08:00:32;20.00;47.50
3868;DHT22;1949;48.152;11.528;2022-10-18T08:02:58;20.00;47.50
3868;DHT22;1949;48.152;11.528;2022-10-18T08:05:27;20.00;47.40
3868;DHT22;1949;48.152;11.528;2022-10-18T08:07:54;20.00;47.40
3868;DHT22;1949;48.152;11.528;2022-10-18T08:10:20;20.00;47.30
3868;DHT22;1949;48.152;11.528;2022-10-18T08:12:47;19.90;47.20
3868;DHT22;1949;48.152;11.528;2022-10-18T08:15:13;19.90;47.30
3868;DHT22;1949;48.152;11.528;2022-10-18T08:17:39;19.90;47.50
3868;DHT22;1949;48.152;11.528;2022-10-18T08:20:05;19.90;47.60
3868;DHT22;1949;48.152;11.528;2022-10-18T08:22:31;19.90;47.70
3868;DHT22;1949;48.152;11.528;2022-10-18T08:24:56;20.00;47.80
3868;DHT22;1949;48.152;11.528;2022-10-18T08:27:22;20.00;47.70
3868;DHT22;1949;48.152;11.528;2022-10-18T08:29:51;20.10;47.70
3868;DHT22;1949;48.152;11.528;2022-10-18T08:32:17;20.20;47.80
3868;DHT22;1949;48.152;11.528;2022-10-18T08:34:43;20.20;47.80
3868;DHT22;1949;48.152;11.528;2022-10-18T08:37:08;20.20;47.80
3868;DHT22;1949;48.152;11.528;2022-10-18T08:39:34;20.30;47.90
3868;DHT22;1949;48.152;11.528;2022-10-18T08:44:48;20.40;47.80
3868;DHT22;1949;48.152;11.528;2022-10-18T08:47:20;20.50;47.80
3868;DHT22;1949;48.152;11.528;2022-10-18T08:49:50;20.50;47.90
3868;DHT22;1949;48.152;11.528;2022-10-18T08:57:45;20.70;47.90
3868;DHT22;1949;48.152;11.528;2022-10-18T09:00:23;20.80;47.90
3868;DHT22;1949;48.152;11.528;2022-10-18T09:03:28;20.80;47.80
3868;DHT22;1949;48.152;11.528;2022-10-18T09:22:17;21.00;48.00
3868;DHT22;1949;48.152;11.528;2022-10-18T09:27:19;21.10;48.00
3868;DHT22;1949;48.152;11.528;2022-10-18T09:30:25;21.20;48.10
3868;DHT22;1949;48.152;11.528;2022-10-18T09:36:00;21.30;48.00
3868;DHT22;1949;48.152;11.528;2022-10-18T09:38:41;21.40;48.30
3868;DHT22;1949;48.152;11.528;2022-10-18T09:41:14;21.40;48.00
3868;DHT22;1949;48.152;11.528;2022-10-18T09:46:14;21.50;48.00
3868;DHT22;1949;48.152;11.528;2022-10-18T09:51:25;21.60;48.00
3868;DHT22;1949;48.152;11.528;2022-10-18T09:54:16;21.70;48.00
3868;DHT22;1949;48.152;11.528;2022-10-18T09:56:56;21.70;47.90
3868;DHT22;1949;48.152;11.528;2022-10-18T09:59:42;21.70;47.80
3868;DHT22;1949;48.152;11.528;2022-10-18T10:02:22;21.80;47.80
3868;DHT22;1949;48.152;11.528;2022-10-18T10:04:49;21.80;47.80
3868;DHT22;1949;48.152;11.528;2022-10-18T10:07:23;21.80;47.70
3868;DHT22;1949;48.152;11.528;2022-10-18T10:12:36;21.90;47.70
3868;DHT22;1949;48.152;11.528;2022-10-18T10:15:24;21.90;47.70
3868;DHT22;1949;48.152;11.528;2022-10-18T10:18:33;21.90;47.70
3868;DHT22;1949;48.152;11.528;2022-10-18T10:20:57;21.90;47.70
3868;DHT22;1949;48.152;11.528;2022-10-18T10:23:26;21.90;47.60
3868;DHT22;1949;48.152;11.528;2022-10-18T10:25:54;21.90;47.80
3868;DHT22;1949;48.152;11.528;2022-10-18T10:28:23;21.90;47.80
3868;DHT22;1949;48.152;11.528;2022-10-18T10:30:50;22.00;47.80
3868;DHT22;1949;48.152;11.528;2022-10-18T10:33:37;22.00;47.80
3868;DHT22;1949;48.152;11.528;2022-10-18T10:36:05;22.00;47.80
3868;DHT22;1949;48.152;11.528;2022-10-18T10:38:40;22.00;47.70
3868;DHT22;1949;48.152;11.528;2022-10-18T10:41:21;22.00;47.70
3868;DHT22;1949;48.152;11.528;2022-10-18T10:43:48;22.10;47.80
3868;DHT22;1949;48.152;11.528;2022-10-18T10:46:17;22.10;47.80
3868;DHT22;1949;48.152;11.528;2022-10-18T10:48:54;22.10;47.80
3868;DHT22;1949;48.152;11.528;2022-10-18T10:51:35;22.10;47.80
3868;DHT22;1949;48.152;11.528;2022-10-18T10:54:05;22.10;47.80
3868;DHT22;1949;48.152;11.528;2022-10-18T11:04:49;22.30;48.10
3868;DHT22;1949;48.152;11.528;2022-10-18T11:07:34;22.30;47.60
3868;DHT22;1949;48.152;11.528;2022-10-18T11:12:46;22.40;47.70
3868;DHT22;1949;48.152;11.528;2022-10-18T11:15:26;22.40;47.60
3868;DHT22;1949;48.152;11.528;2022-10-18T11:18:09;22.50;47.60
3868;DHT22;1949;48.152;11.528;2022-10-18T11:20:52;22.50;47.60
3868;DHT22;1949;48.152;11.528;2022-10-18T11:23:31;22.50;47.50
3868;DHT22;1949;48.152;11.528;2022-10-18T11:31:50;22.70;47.50
3868;DHT22;1949;48.152;11.528;2022-10-18T11:34:41;22.80;47.50
3868;DHT22;1949;48.152;11.528;2022-10-18T11:53:09;23.30;47.50
3868;DHT22;1949;48.152;11.528;2022-10-18T11:59:01;23.40;47.60
3868;DHT22;1949;48.152;11.528;2022-10-18T12:01:40;23.40;47.50
3868;DHT22;1949;48.152;11.528;2022-10-18T12:04:35;23.50;47.40
3868;DHT22;1949;48.152;11.528;2022-10-18T12:07:05;23.60;47.40
3868;DHT22;1949;48.152;11.528;2022-10-18T12:09:36;23.70;47.30
3868;DHT22;1949;48.152;11.528;2022-10-18T12:12:25;23.70;47.30
3868;DHT22;1949;48.152;11.528;2022-10-18T12:14:58;23.80;47.30
3868;DHT22;1949;48.152;11.528;2022-10-18T12:17:39;23.90;47.20
3868;DHT22;1949;48.152;11.528;2022-10-18T12:20:32;24.00;47.10
3868;DHT22;1949;48.152;11.528;2022-10-18T12:23:37;24.00;47.10
3868;DHT22;1949;48.152;11.528;2022-10-18T12:26:05;24.10;47.10
3868;DHT22;1949;48.152;11.528;2022-10-18T12:31:31;24.30;46.80
3868;DHT22;1949;48.152;11.528;2022-10-18T12:39:44;24.40;46.40
3868;DHT22;1949;48.152;11.528;2022-10-18T12:42:27;24.50;46.20
3868;DHT22;1949;48.152;11.528;2022-10-18T12:45:05;24.60;46.20
3868;DHT22;1949;48.152;11.528;2022-10-18T12:47:42;24.70;46.10
3868;DHT22;1949;48.152;11.528;2022-10-18T12:50:28;24.70;45.80
3868;DHT22;1949;48.152;11.528;2022-10-18T12:53:26;24.80;45.90
3868;DHT22;1949;48.152;11.528;2022-10-18T12:55:54;24.90;45.80
3868;DHT22;1949;48.152;11.528;2022-10-18T12:58:30;24.90;45.50
3868;DHT22;1949;48.152;11.528;2022-10-18T13:00:59;24.90;45.40
3868;DHT22;1949;48.152;11.528;2022-10-18T13:05:55;25.00;45.20
3868;DHT22;1949;48.152;11.528;2022-10-18T13:30:36;25.20;44.70
3868;DHT22;1949;48.152;11.528;2022-10-18T13:33:24;25.20;44.60
3868;DHT22;1949;48.152;11.528;2022-10-18T13:38:45;25.10;44.40
3868;DHT22;1949;48.152;11.528;2022-10-18T13:41:19;25.10;44.50
3868;DHT22;1949;48.152;11.528;2022-10-18T14:08:28;24.40;44.90
3868;DHT22;1949;48.152;11.528;2022-10-18T14:13:37;24.30;45.00
3868;DHT22;1949;48.152;11.528;2022-10-18T14:19:13;24.30;45.10
3868;DHT22;1949;48.152;11.528;2022-10-18T14:21:47;24.20;45.20
3868;DHT22;1949;48.152;11.528;2022-10-18T14:24:25;24.20;45.20
3868;DHT22;1949;48.152;11.528;2022-10-18T14:27:14;24.20;45.40
3868;DHT22;1949;48.152;11.528;2022-10-18T14:29:40;24.20;45.40
3868;DHT22;1949;48.152;11.528;2022-10-18T14:32:09;24.10;45.40
3868;DHT22;1949;48.152;11.528;2022-10-18T14:34:36;24.10;45.50
3868;DHT22;1949;48.152;11.528;2022-10-18T14:37:02;24.10;45.50
3868;DHT22;1949;48.152;11.528;2022-10-18T14:39:28;24.10;45.60
3868;DHT22;1949;48.152;11.528;2022-10-18T14:41:56;24.20;45.70
3868;DHT22;1949;48.152;11.528;2022-10-18T14:47:13;24.40;45.80
3868;DHT22;1949;48.152;11.528;2022-10-18T14:49:43;24.40;45.60
3868;DHT22;1949;48.152;11.528;2022-10-18T14:52:13;24.50;45.50
3868;DHT22;1949;48.152;11.528;2022-10-18T14:54:39;24.60;45.50
3868;DHT22;1949;48.152;11.528;2022-10-18T14:57:06;24.70;45.50
3868;DHT22;1949;48.152;11.528;2022-10-18T14:59:39;24.80;45.30
3868;DHT22;1949;48.152;11.528;2022-10-18T15:02:26;24.70;45.00
3868;DHT22;1949;48.152;11.528;2022-10-18T15:04:57;24.70;45.20
3868;DHT22;1949;48.152;11.528;2022-10-18T15:07:23;24.60;45.00
3868;DHT22;1949;48.152;11.528;2022-10-18T15:09:50;24.50;45.00
3868;DHT22;1949;48.152;11.528;2022-10-18T15:12:17;24.40;45.10
3868;DHT22;1949;48.152;11.528;2022-10-18T15:14:44;24.40;45.30
3868;DHT22;1949;48.152;11.528;2022-10-18T15:17:21;24.30;45.30
3868;DHT22;1949;48.152;11.528;2022-10-18T15:19:59;24.30;45.50
3868;DHT22;1949;48.152;11.528;2022-10-18T15:22:31;24.20;45.40
3868;DHT22;1949;48.152;11.528;2022-10-18T15:27:44;24.20;45.80
3868;DHT22;1949;48.152;11.528;2022-10-18T15:30:22;24.20;45.70
3868;DHT22;1949;48.152;11.528;2022-10-18T15:32:56;24.20;45.80
3868;DHT22;1949;48.152;11.528;2022-10-18T15:35:28;24.10;45.80
3868;DHT22;1949;48.152;11.528;2022-10-18T15:38:02;24.10;45.80
3868;DHT22;1949;48.152;11.528;2022-10-18T15:40:38;24.10;45.90
3868;DHT22;1949;48.152;11.528;2022-10-18T15:48:29;24.10;45.90
3868;DHT22;1949;48.152;11.528;2022-10-18T15:50:58;24.00;45.90
3868;DHT22;1949;48.152;11.528;2022-10-18T15:53:51;24.00;46.00
3868;DHT22;1949;48.152;11.528;2022-10-18T15:56:35;24.00;46.00
3868;DHT22;1949;48.152;11.528;2022-10-18T15:59:04;24.00;46.10
3868;DHT22;1949;48.152;11.528;2022-10-18T16:01:40;24.00;46.10
3868;DHT22;1949;48.152;11.528;2022-10-18T16:06:44;23.90;46.10
3868;DHT22;1949;48.152;11.528;2022-10-18T16:09:16;23.90;46.20
3868;DHT22;1949;48.152;11.528;2022-10-18T16:11:42;23.90;46.30
3868;DHT22;1949;48.152;11.528;2022-10-18T16:14:08;23.90;46.30
3868;DHT22;1949;48.152;11.528;2022-10-18T16:16:33;23.80;46.50
3868;DHT22;1949;48.152;11.528;2022-10-18T16:18:59;23.80;46.60
3868;DHT22;1949;48.152;11.528;2022-10-18T16:23:56;23.70;46.90
3868;DHT22;1949;48.152;11.528;2022-10-18T16:26:23;23.70;47.10
3868;DHT22;1949;48.152;11.528;2022-10-18T16:28:50;23.70;47.10
3868;DHT22;1949;48.152;11.528;2022-10-18T16:31:19;23.70;47.30
3868;DHT22;1949;48.152;11.528;2022-10-18T16:33:45;23.60;47.50
3868;DHT22;1949;48.152;11.528;2022-10-18T16:36:16;23.60;47.50
3868;DHT22;1949;48.152;11.528;2022-10-18T16:38:44;23.60;47.80
3868;DHT22;1949;48.152;11.528;2022-10-18T16:41:10;23.60;48.00
3868;DHT22;1949;48.152;11.528;2022-10-18T16:43:38;23.50;48.10
3868;DHT22;1949;48.152;11.528;2022-10-18T16:46:05;23.50;48.20
3868;DHT22;1949;48.152;11.528;2022-10-18T16:48:32;23.50;48.40
3868;DHT22;1949;48.152;11.528;2022-10-18T16:50:57;23.40;48.40
3868;DHT22;1949;48.152;11.528;2022-10-18T16:53:25;23.40;48.70
3868;DHT22;1949;48.152;11.528;2022-10-18T16:55:57;23.40;48.80
3868;DHT22;1949;48.152;11.528;2022-10-18T16:58:24;23.40;49.00
3868;DHT22;1949;48.152;11.528;2022-10-18T17:00:50;23.40;49.10
3868;DHT22;1949;48.152;11.528;2022-10-18T17:03:17;23.30;49.20
3868;DHT22;1949;48.152;11.528;2022-10-18T17:05:42;23.30;49.30
3868;DHT22;1949;48.152;11.528;2022-10-18T17:08:20;23.30;49.40
3868;DHT22;1949;48.152;11.528;2022-10-18T17:10:47;23.30;49.60
3868;DHT22;1949;48.152;11.528;2022-10-18T17:13:15;23.20;49.60
3868;DHT22;1949;48.152;11.528;2022-10-18T17:15:41;23.20;49.70
3868;DHT22;1949;48.152;11.528;2022-10-18T17:18:25;23.20;49.80
3868;DHT22;1949;48.152;11.528;2022-10-18T17:20:52;23.20;49.70
3868;DHT22;1949;48.152;11.528;2022-10-18T17:23:18;23.10;49.90
3868;DHT22;1949;48.152;11.528;2022-10-18T17:25:44;23.10;50.00
3868;DHT22;1949;48.152;11.528;2022-10-18T17:28:16;23.10;50.20
3868;DHT22;1949;48.152;11.528;2022-10-18T17:30:42;23.10;50.30
3868;DHT22;1949;48.152;11.528;2022-10-18T17:33:09;23.10;50.30
3868;DHT22;1949;48.152;11.528;2022-10-18T17:35:35;23.10;50.40
3868;DHT22;1949;48.152;11.528;2022-10-18T17:38:02;23.10;50.40
3868;DHT22;1949;48.152;11.528;2022-10-18T17:40:29;23.10;50.50
3868;DHT22;1949;48.152;11.528;2022-10-18T17:42:55;23.10;50.60
3868;DHT22;1949;48.152;11.528;2022-10-18T17:45:21;23.10;50.60
3868;DHT22;1949;48.152;11.528;2022-10-18T17:47:47;23.10;50.70
3868;DHT22;1949;48.152;11.528;2022-10-18T17:50:14;23.10;50.70
3868;DHT22;1949;48.152;11.528;2022-10-18T17:52:44;23.10;50.80
3868;DHT22;1949;48.152;11.528;2022-10-18T17:55:10;23.10;51.00
3868;DHT22;1949;48.152;11.528;2022-10-18T17:57:37;23.00;50.90
3868;DHT22;1949;48.152;11.528;2022-10-18T18:00:05;23.00;51.00
3868;DHT22;1949;48.152;11.528;2022-10-18T18:02:32;23.00;51.00
3868;DHT22;1949;48.152;11.528;2022-10-18T18:04:58;23.00;51.00
3868;DHT22;1949;48.152;11.528;2022-10-18T18:07:24;23.00;51.10
3868;DHT22;1949;48.152;11.528;2022-10-18T18:09:50;23.00;51.10
3868;DHT22;1949;48.152;11.528;2022-10-18T18:12:15;23.00;51.00
3868;DHT22;1949;48.152;11.528;2022-10-18T18:14:41;23.00;51.10
3868;DHT22;1949;48.152;11.528;2022-10-18T18:17:07;23.00;51.10
3868;DHT22;1949;48.152;11.528;2022-10-18T18:19:33;23.00;51.20
3868;DHT22;1949;48.152;11.528;2022-10-18T18:21:59;23.00;51.20
3868;DHT22;1949;48.152;11.528;2022-10-18T18:24:26;22.90;51.10
3868;DHT22;1949;48.152;11.528;2022-10-18T18:26:55;22.90;51.10
3868;DHT22;1949;48.152;11.528;2022-10-18T18:29:23;22.90;51.10
3868;DHT22;1949;48.152;11.528;2022-10-18T18:31:49;22.90;51.10
3868;DHT22;1949;48.152;11.528;2022-10-18T18:34:16;22.90;51.10
3868;DHT22;1949;48.152;11.528;2022-10-18T18:36:42;22.90;51.10
3868;DHT22;1949;48.152;11.528;2022-10-18T18:39:17;22.80;51.10
3868;DHT22;1949;48.152;11.528;2022-10-18T18:41:43;22.80;51.20
3868;DHT22;1949;48.152;11.528;2022-10-18T18:44:09;22.80;51.10
3868;DHT22;1949;48.152;11.528;2022-10-18T18:46:35;22.80;51.20
3868;DHT22;1949;48.152;11.528;2022-10-18T18:49:05;22.80;51.20
3868;DHT22;1949;48.152;11.528;2022-10-18T18:51:31;22.70;51.20
3868;DHT22;1949;48.152;11.528;2022-10-18T18:53:58;22.70;51.30
3868;DHT22;1949;48.152;11.528;2022-10-18T18:56:25;22.70;51.30
3868;DHT22;1949;48.152;11.528;2022-10-18T18:58:53;22.70;51.30
3868;DHT22;1949;48.152;11.528;2022-10-18T19:01:25;22.70;51.30
3868;DHT22;1949;48.152;11.528;2022-10-18T19:03:53;22.70;51.50
3868;DHT22;1949;48.152;11.528;2022-10-18T19:06:34;22.70;51.40
3868;DHT22;1949;48.152;11.528;2022-10-18T19:09:07;22.70;51.40
3868;DHT22;1949;48.152;11.528;2022-10-18T19:11:37;22.60;51.30
3868;DHT22;1949;48.152;11.528;2022-10-18T19:14:06;22.60;51.30
3868;DHT22;1949;48.152;11.528;2022-10-18T19:16:34;22.60;51.50